Time;durP1;ratioP1;P1;durP2;ratioP2;P2;SDS_P1;SDS_P2;PMS_P1;PMS_P2;Temp;Humidity;BMP_temperature;BMP_pressure;BME280_temperature;BME280_humidity;BME280_pressure;Samples;Min_cycle;Max_cycle;Signal;HPM_P1;HPM_P2
2020/12/11 00:00:24;;;;;;;1.80;0.85;;;13.80;84.30;;;;;;5003709;28;79916;-73
2020/12/11 00:02:58;;;;;;;1.85;1.08;;;13.80;84.30;;;;;;5006484;28;80708;-74
2020/12/11 00:06:01;;;;;;;1.65;0.70;;;13.90;84.30;;;;;;4987675;28;81391;-73
2020/12/11 00:11:34;;;;;;;2.85;0.98;;;13.80;84.40;;;;;;4964770;28;79937;-74
2020/12/11 00:14:31;;;;;;;1.55;0.98;;;13.80;84.70;;;;;;4954916;28;80425;-74
2020/12/11 00:17:14;;;;;;;2.75;1.00;;;13.80;85.00;;;;;;5013232;28;80714;-74
2020/12/11 00:20:14;;;;;;;1.60;1.05;;;13.80;85.30;;;;;;5005260;28;82771;-72
2020/12/11 00:22:56;;;;;;;2.30;0.98;;;13.80;85.40;;;;;;5007844;28;80796;-74
2020/12/11 00:25:45;;;;;;;1.58;0.90;;;13.80;85.50;;;;;;5007650;28;80010;-72
2020/12/11 00:35:39;;;;;;;2.92;1.20;;;13.80;85.80;;;;;;5024647;28;81013;-73
2020/12/11 00:38:37;;;;;;;2.20;1.35;;;13.70;86.60;;;;;;5010547;28;80927;-74
2020/12/11 00:41:18;;;;;;;4.50;1.42;;;13.60;87.30;;;;;;5011654;28;82775;-72
2020/12/11 00:44:03;;;;;;;2.30;1.17;;;13.40;87.90;;;;;;5006518;28;80952;-74
2020/12/11 00:47:13;;;;;;;2.63;1.38;;;13.40;88.00;;;;;;4992520;28;80918;-72
2020/12/11 00:50:20;;;;;;;2.72;1.40;;;13.40;88.00;;;;;;4967132;28;81858;-73
2020/12/11 00:52:57;;;;;;;2.25;1.10;;;13.50;88.10;;;;;;4892615;28;79988;-73
2020/12/11 00:56:04;;;;;;;3.33;0.70;;;13.50;88.20;;;;;;5005734;28;81886;-73
2020/12/11 00:58:36;;;;;;;1.30;0.70;;;13.50;88.00;;;;;;4983500;28;82923;-72
2020/12/11 01:01:17;;;;;;;1.40;0.75;;;13.50;88.00;;;;;;5019889;28;80776;-76
2020/12/11 01:04:09;;;;;;;2.97;0.68;;;13.50;88.00;;;;;;4980814;28;81836;-76
2020/12/11 01:07:00;;;;;;;1.52;0.80;;;13.50;87.90;;;;;;5019308;28;80453;-71
2020/12/11 01:10:21;;;;;;;2.10;0.80;;;13.50;88.10;;;;;;5028540;28;80970;-77
2020/12/11 01:13:01;;;;;;;1.50;0.60;;;13.50;88.20;;;;;;4870390;29;80297;-75
2020/12/11 01:15:51;;;;;;;1.45;0.70;;;13.50;88.70;;;;;;4870813;29;80858;-74
2020/12/11 01:21:22;;;;;;;2.00;0.90;;;13.40;89.10;;;;;;4928095;28;80476;-79
2020/12/11 01:24:07;;;;;;;1.20;0.65;;;13.50;89.40;;;;;;4945123;28;80209;-78
2020/12/11 01:26:53;;;;;;;1.92;0.90;;;13.40;89.60;;;;;;4930856;28;83429;-79
2020/12/11 01:29:25;;;;;;;1.67;0.77;;;13.40;89.70;;;;;;4932967;28;81565;-80
2020/12/11 01:32:27;;;;;;;1.88;0.70;;;13.40;89.70;;;;;;4931067;28;82978;-80
2020/12/11 01:35:24;;;;;;;3.63;0.52;;;13.40;89.70;;;;;;4945683;28;80722;-78
2020/12/11 01:38:32;;;;;;;1.70;0.60;;;13.30;89.80;;;;;;4944786;28;82006;-78
2020/12/11 01:41:07;;;;;;;1.45;0.47;;;13.40;89.80;;;;;;4911884;28;80880;-75
2020/12/11 01:44:26;;;;;;;1.15;0.60;;;13.40;89.80;;;;;;4947144;28;80907;-75
2020/12/11 01:47:19;;;;;;;1.40;0.60;;;13.40;89.60;;;;;;4943955;28;81524;-75
2020/12/11 01:49:54;;;;;;;1.50;0.60;;;13.40;89.70;;;;;;4971106;28;81321;-78
2020/12/11 01:52:34;;;;;;;0.95;0.38;;;13.40;89.70;;;;;;5028424;28;80788;-80
2020/12/11 01:55:15;;;;;;;3.03;0.95;;;13.40;89.60;;;;;;4978061;28;81748;-76
2020/12/11 01:58:05;;;;;;;1.52;0.40;;;13.40;89.60;;;;;;5010370;28;80072;-80
2020/12/11 02:01:06;;;;;;;1.48;0.70;;;13.40;89.60;;;;;;5028928;28;81979;-78
2020/12/11 02:04:20;;;;;;;1.10;0.52;;;13.40;89.60;;;;;;5016007;28;80101;-77
2020/12/11 02:07:25;;;;;;;1.00;0.50;;;13.40;89.50;;;;;;4912352;28;79992;-74
2020/12/11 02:10:04;;;;;;;1.02;0.47;;;13.40;89.50;;;;;;4916990;28;80028;-76
2020/12/11 02:12:43;;;;;;;1.17;0.55;;;13.40;89.70;;;;;;4946706;28;80832;-83
2020/12/11 02:15:25;;;;;;;2.00;0.50;;;13.40;89.50;;;;;;4946510;28;80186;-76
2020/12/11 02:18:20;;;;;;;1.48;0.65;;;13.40;89.30;;;;;;4946303;28;80781;-80
2020/12/11 02:21:00;;;;;;;0.98;0.40;;;13.40;89.20;;;;;;4923392;28;80923;-80
2020/12/11 02:23:43;;;;;;;1.05;0.50;;;13.40;89.30;;;;;;4941550;28;81542;-78
2020/12/11 02:26:29;;;;;;;1.08;0.60;;;13.50;89.20;;;;;;4946135;28;80906;-81
2020/12/11 02:32:09;;;;;;;1.05;0.57;;;13.50;89.10;;;;;;4926528;28;80580;-78
2020/12/11 02:34:46;;;;;;;0.90;0.35;;;13.50;89.00;;;;;;4926971;28;82880;-76
2020/12/11 02:37:37;;;;;;;1.00;0.50;;;13.50;88.90;;;;;;4914500;28;80113;-74
2020/12/11 02:40:10;;;;;;;1.05;0.50;;;13.50;88.80;;;;;;4924142;28;80753;-73
2020/12/11 02:42:48;;;;;;;;;;;13.50;88.80;;;;;;4912555;28;83600;-74
2020/12/11 02:45:25;;;;;;;1.10;0.60;;;13.50;88.90;;;;;;4949269;28;76943;-74
2020/12/11 02:48:21;;;;;;;1.33;0.50;;;13.50;88.90;;;;;;4944617;28;79978;-71
2020/12/11 02:50:53;;;;;;;1.30;0.60;;;13.50;88.90;;;;;;4883658;28;80010;-75
2020/12/11 02:53:26;;;;;;;1.80;0.45;;;13.60;88.90;;;;;;4872523;28;82653;-72
2020/12/11 02:56:22;;;;;;;1.33;0.70;;;13.60;88.80;;;;;;4886508;28;80066;-72
2020/12/11 02:58:56;;;;;;;1.75;1.00;;;13.60;88.70;;;;;;4850671;29;80651;-76
2020/12/11 03:01:53;;;;;;;1.45;0.60;;;13.60;88.70;;;;;;4834419;29;81227;-79
2020/12/11 03:04:32;;;;;;;1.70;0.73;;;13.70;88.70;;;;;;4850077;29;80507;-76
2020/12/11 03:07:47;;;;;;;1.80;0.90;;;13.60;88.70;;;;;;4851040;29;80018;-79
2020/12/11 03:10:21;;;;;;;1.73;0.90;;;13.70;88.50;;;;;;4909093;28;80628;-79
2020/12/11 03:13:16;;;;;;;2.90;0.80;;;13.70;88.60;;;;;;4965592;28;80029;-77
2020/12/11 03:19:28;;;;;;;1.25;0.68;;;13.70;88.50;;;;;;4945364;28;80559;-77
2020/12/11 03:22:06;;;;;;;1.70;0.70;;;13.80;88.50;;;;;;4964975;28;80804;-78
2020/12/11 03:25:32;;;;;;;2.97;1.30;;;13.70;88.50;;;;;;4964947;28;80956;-77
2020/12/11 03:28:03;;;;;;;1.88;1.05;;;13.70;88.40;;;;;;4916708;28;80035;-79
2020/12/11 03:30:53;;;;;;;1.60;0.90;;;13.70;88.60;;;;;;4992740;28;80968;-74
2020/12/11 03:33:56;;;;;;;2.83;1.15;;;13.70;88.70;;;;;;5008542;28;80788;-77
2020/12/11 03:36:53;;;;;;;1.98;1.08;;;13.70;88.60;;;;;;5044969;28;83172;-76
2020/12/11 03:39:38;;;;;;;2.00;1.23;;;13.70;88.60;;;;;;5041824;28;80007;-78
2020/12/11 03:42:13;;;;;;;3.13;1.23;;;13.70;88.50;;;;;;4978437;28;83126;-75
2020/12/11 03:48:05;;;;;;;1.70;1.00;;;13.80;88.50;;;;;;4984478;28;80605;-73
2020/12/11 03:51:00;;;;;;;2.10;1.20;;;13.80;88.50;;;;;;4920193;28;79974;-74
2020/12/11 03:53:43;;;;;;;2.00;1.15;;;13.70;88.50;;;;;;4905052;28;80797;-74
2020/12/11 03:56:25;;;;;;;2.03;1.33;;;13.70;88.50;;;;;;4976909;28;80489;-73
2020/12/11 04:02:12;;;;;;;2.25;1.40;;;13.80;88.30;;;;;;4964247;28;80149;-73
2020/12/11 04:05:10;;;;;;;2.33;1.35;;;13.80;88.40;;;;;;4984335;28;81126;-74
2020/12/11 04:08:10;;;;;;;2.50;1.70;;;13.80;88.40;;;;;;4982556;28;80308;-74
2020/12/11 04:10:49;;;;;;;2.70;1.70;;;13.80;88.40;;;;;;4967653;28;81035;-74
2020/12/11 04:13:54;;;;;;;2.63;1.73;;;13.90;88.40;;;;;;4960432;28;80554;-74
2020/12/11 04:16:53;;;;;;;2.33;1.33;;;13.80;88.40;;;;;;5023016;28;80720;-73
2020/12/11 04:19:34;;;;;;;2.80;1.67;;;13.80;88.60;;;;;;4982070;28;82388;-73
2020/12/11 04:22:59;;;;;;;2.70;1.70;;;13.80;88.60;;;;;;4973308;28;80752;-73
2020/12/11 04:25:31;;;;;;;2.08;1.38;;;13.80;88.60;;;;;;4904892;28;82914;-75
2020/12/11 04:28:25;;;;;;;2.57;1.70;;;13.70;88.80;;;;;;4924700;28;80719;-74
2020/12/11 04:31:04;;;;;;;1.80;1.27;;;13.70;89.00;;;;;;4924155;28;80052;-75
2020/12/11 04:33:39;;;;;;;4.90;1.63;;;13.70;88.90;;;;;;4925268;28;80975;-76
2020/12/11 04:36:19;;;;;;;2.58;1.40;;;13.70;89.00;;;;;;4925642;28;80635;-75
2020/12/11 04:39:14;;;;;;;1.70;1.13;;;13.70;88.90;;;;;;4920385;28;81843;-76
2020/12/11 04:42:14;;;;;;;2.30;1.10;;;13.70;88.90;;;;;;4923844;28;82549;-76
2020/12/11 04:45:29;;;;;;;;;;;;;;;;;;;;;
2020/12/11 04:48:02;;;;;;;1.40;0.90;;;13.80;88.90;;;;;;4924554;28;109384;-71
2020/12/11 04:51:19;;;;;;;1.42;0.70;;;13.70;88.90;;;;;;4947153;28;80105;-72
2020/12/11 04:54:04;;;;;;;2.28;1.13;;;13.70;88.70;;;;;;4977793;28;81157;-72
2020/12/11 04:56:40;;;;;;;1.15;0.75;;;13.80;88.70;;;;;;5004604;28;83234;-76
2020/12/11 04:59:38;;;;;;;1.50;0.70;;;13.80;88.60;;;;;;4976444;28;82442;-75
2020/12/11 05:02:24;;;;;;;1.75;0.90;;;13.80;88.40;;;;;;5024024;28;82778;-71
2020/12/11 05:05:20;;;;;;;1.38;0.80;;;13.80;88.40;;;;;;5027853;28;80574;-77
2020/12/11 05:07:51;;;;;;;1.98;0.70;;;13.70;88.40;;;;;;5034685;28;81268;-76
2020/12/11 05:10:27;;;;;;;1.77;0.75;;;13.70;88.40;;;;;;5027299;28;80807;-78
2020/12/11 05:13:24;;;;;;;1.98;0.88;;;13.70;88.30;;;;;;5016460;28;80789;-77
2020/12/11 05:16:22;;;;;;;1.45;0.60;;;13.70;88.20;;;;;;4993173;28;80490;-72
2020/12/11 05:19:26;;;;;;;2.08;0.93;;;13.70;88.10;;;;;;5045250;27;81133;-74
2020/12/11 05:22:18;;;;;;;1.17;0.60;;;13.70;88.10;;;;;;5036515;28;80717;-72
2020/12/11 05:25:16;;;;;;;1.30;0.80;;;13.70;88.20;;;;;;5030703;28;79954;-71
2020/12/11 05:28:32;;;;;;;1.40;0.70;;;13.70;88.10;;;;;;5022785;28;80796;-69
2020/12/11 05:31:13;;;;;;;1.65;0.93;;;13.80;88.10;;;;;;5041936;28;79850;-74
2020/12/11 05:34:14;;;;;;;1.67;0.82;;;13.80;88.00;;;;;;5047251;28;80817;-74
2020/12/11 05:37:45;;;;;;;1.40;0.75;;;13.80;87.80;;;;;;5011155;28;82008;-72
2020/12/11 05:41:00;;;;;;;1.38;0.93;;;13.90;87.60;;;;;;4937817;28;82362;-71
2020/12/11 05:43:40;;;;;;;1.27;0.47;;;13.90;87.40;;;;;;5047773;28;81022;-72
2020/12/11 05:46:25;;;;;;;1.30;0.60;;;13.90;87.20;;;;;;5029847;28;80017;-70
2020/12/11 05:52:12;;;;;;;1.40;0.70;;;13.90;87.20;;;;;;5037982;28;80345;-71
2020/12/11 05:55:12;;;;;;;;;;;;;;;;;;;;;
2020/12/11 05:57:51;;;;;;;1.50;0.85;;;13.90;87.10;;;;;;5047550;28;111288;-72
2020/12/11 06:01:00;;;;;;;1.05;0.52;;;13.90;87.20;;;;;;5025204;28;80864;-71
2020/12/11 06:03:49;;;;;;;1.30;0.60;;;14.00;87.00;;;;;;4992558;28;81647;-79
2020/12/11 06:06:59;;;;;;;1.50;0.73;;;13.90;87.10;;;;;;4995677;28;81102;-73
2020/12/11 06:10:01;;;;;;;2.00;0.82;;;14.00;87.20;;;;;;5000283;28;79950;-75
2020/12/11 06:12:50;;;;;;;1.33;0.68;;;14.00;87.10;;;;;;5048666;28;80801;-75
2020/12/11 06:15:43;;;;;;;2.33;0.50;;;14.00;87.00;;;;;;5030950;28;80305;-79
2020/12/11 06:18:24;;;;;;;1.63;0.90;;;14.10;86.80;;;;;;5048059;27;80528;-76
2020/12/11 06:21:17;;;;;;;1.60;0.80;;;14.00;86.80;;;;;;4999521;28;80342;-76
2020/12/11 06:23:54;;;;;;;3.43;1.00;;;14.10;86.70;;;;;;5027262;28;80661;-75
2020/12/11 06:32:54;;;;;;;1.80;0.90;;;14.10;86.60;;;;;;5048804;27;79968;-78
2020/12/11 06:39:09;;;;;;;1.75;1.00;;;14.10;86.60;;;;;;5024160;28;80643;-69
2020/12/11 06:41:53;;;;;;;1.60;1.00;;;14.10;86.80;;;;;;5048264;28;80365;-67
2020/12/11 06:44:25;;;;;;;2.92;1.42;;;14.10;86.80;;;;;;5028503;28;82411;-68
2020/12/11 06:47:30;;;;;;;2.25;1.42;;;14.10;86.80;;;;;;5030404;28;79992;-69
2020/12/11 06:50:18;;;;;;;2.30;1.23;;;14.10;86.70;;;;;;5005161;28;80585;-67
2020/12/11 06:53:35;;;;;;;2.40;1.63;;;14.10;86.80;;;;;;4985454;28;80011;-70
2020/12/11 06:56:59;;;;;;;2.42;1.10;;;14.10;86.80;;;;;;4984692;28;80906;-71
2020/12/11 06:59:42;;;;;;;2.10;1.30;;;14.10;86.90;;;;;;4985312;28;80897;-67
2020/12/11 07:03:04;;;;;;;2.65;1.10;;;14.10;86.80;;;;;;4975976;28;81753;-72
2020/12/11 07:05:41;;;;;;;1.63;1.00;;;14.10;86.60;;;;;;4985187;28;80627;-68
2020/12/11 07:08:33;;;;;;;2.05;1.05;;;14.10;86.60;;;;;;4968365;28;80109;-69
2020/12/11 07:11:12;;;;;;;1.60;0.70;;;14.20;86.50;;;;;;4985271;28;80563;-72
2020/12/11 07:13:54;;;;;;;1.80;0.85;;;14.20;86.40;;;;;;4982312;28;79734;-68
2020/12/11 07:17:26;;;;;;;1.95;1.08;;;14.20;86.30;;;;;;4968160;28;81020;-70
2020/12/11 07:20:07;;;;;;;1.45;0.75;;;14.20;86.30;;;;;;4888835;28;80519;-67
2020/12/11 07:23:02;;;;;;;1.70;0.85;;;14.10;86.50;;;;;;4906087;28;80971;-66
2020/12/11 07:25:47;;;;;;;1.88;0.98;;;14.20;86.40;;;;;;4986021;28;80159;-66
2020/12/11 07:28:21;;;;;;;1.35;0.90;;;14.20;86.30;;;;;;4967516;28;80472;-67
2020/12/11 07:30:57;;;;;;;1.73;1.10;;;14.20;86.20;;;;;;5006950;28;80831;-66
2020/12/11 07:33:37;;;;;;;1.67;1.02;;;14.20;86.30;;;;;;4988889;28;83130;-69
2020/12/11 07:36:19;;;;;;;1.85;1.00;;;14.20;86.30;;;;;;4986154;28;82272;-68
2020/12/11 07:39:35;;;;;;;3.92;0.80;;;14.20;86.20;;;;;;5007120;28;80603;-66
2020/12/11 07:42:51;;;;;;;1.90;0.90;;;14.20;86.20;;;;;;4918774;28;80675;-68
2020/12/11 07:45:52;;;;;;;1.30;0.90;;;14.30;86.20;;;;;;4910410;28;82932;-70
2020/12/11 07:48:34;;;;;;;1.40;0.88;;;14.30;86.10;;;;;;4921440;28;82236;-69
2020/12/11 07:51:15;;;;;;;2.55;0.90;;;14.20;86.10;;;;;;4911162;28;81438;-69
2020/12/11 07:54:18;;;;;;;1.92;1.00;;;14.30;86.10;;;;;;4929964;28;80544;-69
2020/12/11 07:57:08;;;;;;;1.38;0.70;;;14.30;86.00;;;;;;4950578;28;81453;-69
2020/12/11 08:00:28;;;;;;;2.45;0.52;;;14.30;86.00;;;;;;4968446;28;81666;-65
2020/12/11 08:03:27;;;;;;;1.60;0.80;;;14.30;85.90;;;;;;4949727;28;82529;-68
2020/12/11 08:05:58;;;;;;;1.45;0.60;;;14.30;86.00;;;;;;4880179;28;82080;-67
2020/12/11 08:08:36;;;;;;;0.93;0.50;;;14.30;86.00;;;;;;4957315;28;82007;-70
2020/12/11 08:11:35;;;;;;;1.25;0.80;;;14.30;85.90;;;;;;4964347;28;82628;-67
2020/12/11 08:14:41;;;;;;;1.77;0.73;;;14.40;85.70;;;;;;4970846;28;82361;-66
2020/12/11 08:20:41;;;;;;;1.33;0.57;;;14.40;85.70;;;;;;4898393;28;81064;-67
2020/12/11 08:23:55;;;;;;;0.88;0.40;;;14.30;85.80;;;;;;4928927;28;81978;-66
2020/12/11 08:27:08;;;;;;;1.35;0.50;;;14.40;85.70;;;;;;4975270;28;80434;-69
2020/12/11 08:30:23;;;;;;;1.50;0.50;;;14.40;85.60;;;;;;4973168;28;80557;-68
2020/12/11 08:33:40;;;;;;;0.82;0.40;;;14.40;85.60;;;;;;4971769;28;83010;-67
2020/12/11 08:36:34;;;;;;;2.45;0.40;;;14.40;85.50;;;;;;4974295;28;80601;-66
2020/12/11 08:39:40;;;;;;;2.95;0.30;;;14.40;85.50;;;;;;4988888;28;80676;-69
2020/12/11 08:51:46;;;;;;;0.63;0.20;;;14.40;85.70;;;;;;5006597;28;80358;-70
2020/12/11 08:58:30;;;;;;;2.65;1.48;;;14.40;85.80;;;;;;4984315;28;80506;-66
2020/12/11 09:01:42;;;;;;;0.60;0.43;;;14.40;85.60;;;;;;4974264;28;79844;-68
2020/12/11 09:08:28;;;;;;;0.60;0.28;;;14.70;84.80;;;;;;4979818;28;79986;-67
2020/12/11 09:11:14;;;;;;;1.48;0.40;;;14.70;84.70;;;;;;4959824;28;81053;-69
2020/12/11 09:14:10;;;;;;;1.33;0.52;;;14.70;84.70;;;;;;5009288;28;80666;-66
2020/12/11 09:16:52;;;;;;;1.27;0.50;;;14.70;84.60;;;;;;5006421;28;80872;-66
2020/12/11 09:19:27;;;;;;;1.35;0.70;;;14.70;84.70;;;;;;5009606;28;80450;-66
2020/12/11 09:22:12;;;;;;;0.90;0.40;;;14.70;84.60;;;;;;5017052;28;80992;-68
2020/12/11 09:24:55;;;;;;;1.48;0.70;;;14.70;84.60;;;;;;5018076;28;80461;-69
2020/12/11 09:27:49;;;;;;;1.20;0.50;;;14.70;84.60;;;;;;4998692;28;81173;-69
2020/12/11 09:34:13;;;;;;;1.35;0.60;;;14.70;84.60;;;;;;4924258;28;80352;-67
2020/12/11 09:37:10;;;;;;;1.23;0.38;;;14.80;84.50;;;;;;4936571;28;80874;-68
2020/12/11 09:40:15;;;;;;;1.00;0.38;;;14.70;84.50;;;;;;4967477;28;80503;-69
2020/12/11 09:48:51;;;;;;;0.65;0.30;;;14.90;84.30;;;;;;5016116;28;79814;-67
2020/12/11 09:57:51;;;;;;;1.45;0.47;;;14.90;83.90;;;;;;4997094;28;80510;-69
2020/12/11 10:00:51;;;;;;;1.08;0.40;;;14.90;83.80;;;;;;5017900;28;80862;-66
2020/12/11 10:03:40;;;;;;;0.45;0.30;;;14.90;83.70;;;;;;5024509;28;80945;-67
2020/12/11 10:07:12;;;;;;;0.95;0.20;;;15.00;83.40;;;;;;4993721;28;79970;-65
2020/12/11 10:10:26;;;;;;;2.75;0.40;;;15.00;83.30;;;;;;4947496;28;80610;-68
2020/12/11 10:13:23;;;;;;;0.88;0.20;;;15.10;83.20;;;;;;4946027;28;79778;-67
2020/12/11 10:16:20;;;;;;;0.85;0.30;;;15.30;82.80;;;;;;4934086;28;80561;-66
2020/12/11 10:19:19;;;;;;;1.38;0.32;;;15.40;82.50;;;;;;4946453;28;82991;-68
2020/12/11 10:21:58;;;;;;;1.58;0.30;;;15.40;82.50;;;;;;4933721;28;80594;-68
2020/12/11 10:25:07;;;;;;;1.58;0.30;;;15.40;82.50;;;;;;4945678;28;80469;-69
2020/12/11 10:27:52;;;;;;;2.20;0.47;;;15.40;82.00;;;;;;4940009;28;81237;-70
2020/12/11 10:33:24;;;;;;;0.80;0.30;;;15.40;81.80;;;;;;4938999;28;80637;-68
2020/12/11 10:36:45;;;;;;;0.60;0.25;;;15.50;81.60;;;;;;4929894;28;81003;-69
2020/12/11 10:39:36;;;;;;;2.03;0.17;;;15.60;81.30;;;;;;4907536;28;80730;-68
2020/12/11 10:42:13;;;;;;;0.55;0.10;;;16.20;79.20;;;;;;4906826;28;80581;-69
2020/12/11 10:44:49;;;;;;;1.73;0.20;;;16.10;79.40;;;;;;4930155;28;80516;-68
2020/12/11 10:47:41;;;;;;;1.88;0.32;;;16.10;79.20;;;;;;4949380;28;82944;-69
2020/12/11 10:50:20;;;;;;;0.98;0.28;;;16.30;78.30;;;;;;4966516;28;81021;-68
2020/12/11 10:53:01;;;;;;;1.23;0.35;;;16.30;78.40;;;;;;4960217;28;80759;-68
2020/12/11 10:55:55;;;;;;;2.38;0.80;;;16.50;78.00;;;;;;4956395;28;81296;-69
2020/12/11 10:59:06;;;;;;;2.83;0.68;;;16.90;76.60;;;;;;4923022;28;80950;-67
2020/12/11 11:01:57;;;;;;;3.03;1.27;;;17.80;73.50;;;;;;4926911;28;80925;-66
2020/12/11 11:04:56;;;;;;;;;;;;;;;;;;;;;
2020/12/11 11:07:59;;;;;;;3.47;0.82;;;19.60;66.40;;;;;;4968157;28;80532;-68
2020/12/11 11:10:57;;;;;;;1.15;0.57;;;19.90;66.00;;;;;;4953362;28;82179;-68
2020/12/11 11:28:56;;;;;;;1.13;0.32;;;20.20;63.10;;;;;;5011926;28;81568;-67
2020/12/11 11:31:51;;;;;;;3.03;0.35;;;20.40;62.30;;;;;;4944798;28;81042;-67
2020/12/11 11:38:09;;;;;;;0.57;0.30;;;20.10;63.50;;;;;;4929334;28;80402;-68
2020/12/11 11:40:53;;;;;;;0.52;0.17;;;20.30;63.00;;;;;;4920721;28;81367;-69
2020/12/11 11:47:15;;;;;;;0.88;0.20;;;21.50;59.40;;;;;;4882837;28;80989;-67
2020/12/11 11:50:48;;;;;;;1.08;0.30;;;22.50;56.40;;;;;;4869873;28;81771;-66
2020/12/11 11:53:10;;;;;;;4.53;0.30;;;23.40;53.80;;;;;;4871781;28;81356;-67
2020/12/11 11:55:57;;;;;;;0.85;0.30;;;23.60;53.00;;;;;;4883086;28;81693;-67
2020/12/11 11:58:38;;;;;;;0.60;0.20;;;22.90;54.70;;;;;;4883879;28;81899;-65
2020/12/11 12:01:04;;;;;;;2.63;0.43;;;22.40;55.50;;;;;;4877377;28;81904;-68
2020/12/11 12:03:40;;;;;;;1.00;0.20;;;22.10;57.00;;;;;;4933973;28;82210;-70
2020/12/11 12:06:24;;;;;;;1.65;0.77;;;21.60;57.70;;;;;;4938096;28;81244;-67
2020/12/11 12:09:28;;;;;;;2.50;0.50;;;22.50;55.70;;;;;;4942584;28;81120;-69
2020/12/11 12:12:01;;;;;;;1.33;0.10;;;23.40;53.40;;;;;;4922806;28;81802;-68
2020/12/11 12:14:35;;;;;;;;;;;25.20;49.40;;;;;;4939431;28;81323;-69
2020/12/11 12:17:09;;;;;;;3.08;0.35;;;25.20;49.70;;;;;;4924480;28;77866;-67
2020/12/11 12:19:59;;;;;;;5.68;0.52;;;24.60;49.80;;;;;;4943303;28;81101;-67
2020/12/11 12:28:58;;;;;;;1.42;0.20;;;22.50;55.20;;;;;;5036620;27;81153;-68
2020/12/11 12:31:40;;;;;;;1.67;0.10;;;22.30;55.80;;;;;;5019074;28;82475;-69
2020/12/11 12:45:29;;;;;;;2.88;0.40;;;20.40;61.20;;;;;;5037977;28;80671;-68
2020/12/11 12:48:07;;;;;;;1.23;0.50;;;20.30;62.20;;;;;;5025017;28;82205;-68
2020/12/11 12:51:00;;;;;;;2.15;0.50;;;19.90;63.20;;;;;;5036217;28;81661;-67
2020/12/11 12:53:43;;;;;;;1.23;0.50;;;19.50;64.90;;;;;;5019333;28;80433;-68
2020/12/11 12:56:44;;;;;;;1.25;0.47;;;19.00;66.40;;;;;;5018946;28;82168;-68
2020/12/11 13:05:09;;;;;;;1.45;0.43;;;19.40;65.70;;;;;;5039235;28;80147;-69
2020/12/11 13:07:41;;;;;;;1.20;0.38;;;19.80;64.20;;;;;;5050065;28;80773;-68
2020/12/11 13:10:47;;;;;;;2.25;0.50;;;19.60;64.80;;;;;;5049464;28;81572;-68
2020/12/11 13:13:25;;;;;;;1.55;0.43;;;19.50;65.20;;;;;;5046082;28;81218;-67
2020/12/11 13:16:14;;;;;;;0.85;0.17;;;19.50;65.40;;;;;;5047190;28;80958;-68
2020/12/11 13:19:19;;;;;;;0.38;0.20;;;19.90;63.80;;;;;;5035578;28;81107;-67
2020/12/11 13:27:50;;;;;;;1.13;0.40;;;18.60;68.10;;;;;;5049853;28;80022;-69
2020/12/11 13:30:26;;;;;;;3.38;0.40;;;18.30;69.20;;;;;;4992300;28;81051;-70
2020/12/11 13:33:24;;;;;;;1.92;0.45;;;18.10;69.80;;;;;;5048751;28;80879;-68
2020/12/11 13:36:13;;;;;;;1.48;0.20;;;18.10;70.20;;;;;;5029946;28;80831;-67
2020/12/11 13:38:58;;;;;;;0.70;0.52;;;18.20;70.00;;;;;;5002872;28;80698;-67
2020/12/11 13:41:36;;;;;;;1.02;0.40;;;18.20;70.10;;;;;;5029722;28;82825;-66
2020/12/11 13:44:03;;;;;;;2.60;0.68;;;18.30;69.80;;;;;;5030526;28;80633;-68
2020/12/11 13:46:46;;;;;;;;;;;18.40;69.40;;;;;;5049203;28;79788;-67
2020/12/11 13:49:45;;;;;;;1.42;0.32;;;18.50;68.50;;;;;;5053752;28;80184;-68
2020/12/11 13:52:17;;;;;;;1.10;0.52;;;18.50;69.00;;;;;;5026864;28;81197;-68
2020/12/11 13:55:15;;;;;;;0.83;0.20;;;18.40;69.10;;;;;;4994422;28;80014;-68
2020/12/11 13:58:04;;;;;;;0.45;0.20;;;18.20;69.60;;;;;;5029178;28;81159;-68
2020/12/11 14:07:01;;;;;;;0.97;0.30;;;17.70;71.70;;;;;;4966091;28;80534;-68
2020/12/11 14:09:46;;;;;;;2.45;0.50;;;17.70;71.80;;;;;;4986943;28;80927;-68
2020/12/11 14:12:28;;;;;;;;;;;;;;;;;;;;;
2020/12/11 14:15:01;;;;;;;1.15;0.30;;;17.90;71.60;;;;;;4970987;28;110044;-65
2020/12/11 14:23:42;;;;;;;1.00;0.30;;;17.90;71.70;;;;;;4998554;28;80003;-65
2020/12/11 14:26:43;;;;;;;1.55;0.22;;;17.80;71.70;;;;;;5028316;28;80687;-67
2020/12/11 14:29:20;;;;;;;0.88;0.20;;;17.70;72.00;;;;;;5028470;28;80231;-66
2020/12/11 14:32:38;;;;;;;2.15;0.50;;;17.70;72.40;;;;;;5009429;28;83121;-67
2020/12/11 14:35:21;;;;;;;2.78;0.60;;;17.70;72.40;;;;;;5027912;28;80291;-66
2020/12/11 14:38:58;;;;;;;1.58;0.30;;;17.50;72.80;;;;;;5009741;28;81859;-69
2020/12/11 14:41:03;;;;;;;1.88;0.28;;;17.40;73.40;;;;;;5021317;28;80157;-67
2020/12/11 14:43:43;;;;;;;1.50;0.38;;;17.30;73.90;;;;;;5006515;28;81958;-67
2020/12/11 14:46:41;;;;;;;0.75;0.20;;;17.20;74.00;;;;;;5024261;28;80151;-69
2020/12/11 14:49:30;;;;;;;1.02;0.22;;;17.20;74.10;;;;;;4964558;28;81304;-69
2020/12/11 14:52:18;;;;;;;0.50;0.15;;;17.20;74.30;;;;;;4992094;28;81210;-69
2020/12/11 14:54:54;;;;;;;0.95;0.22;;;17.20;74.50;;;;;;5027140;28;80660;-67
2020/12/11 14:58:19;;;;;;;0.85;0.17;;;17.20;74.40;;;;;;5015479;28;80828;-68
2020/12/11 15:01:58;;;;;;;1.75;0.20;;;17.30;74.10;;;;;;5027984;28;79831;-66
2020/12/11 15:04:28;;;;;;;0.90;0.30;;;17.30;74.10;;;;;;5016842;28;79792;-67
2020/12/11 15:07:28;;;;;;;2.50;0.75;;;17.30;74.10;;;;;;4972324;28;80623;-69
2020/12/11 15:10:05;;;;;;;0.45;0.20;;;17.20;74.50;;;;;;5020359;28;80214;-69
2020/12/11 15:13:16;;;;;;;1.00;0.20;;;17.20;74.50;;;;;;5008960;28;83111;-67
2020/12/11 15:19:04;;;;;;;0.93;0.20;;;17.30;74.30;;;;;;4887805;28;80865;-67
2020/12/11 15:21:56;;;;;;;0.77;0.50;;;17.40;73.80;;;;;;4942549;28;80796;-67
2020/12/11 15:24:38;;;;;;;2.67;0.40;;;17.50;73.60;;;;;;4945345;28;80791;-68
2020/12/11 15:27:30;;;;;;;0.68;0.32;;;17.40;73.80;;;;;;4929120;28;80757;-68
2020/12/11 15:30:26;;;;;;;0.80;0.28;;;17.50;73.40;;;;;;4959403;28;81247;-66
2020/12/11 15:33:03;;;;;;;0.38;0.20;;;17.50;73.50;;;;;;4999767;28;80313;-69
2020/12/11 15:35:46;;;;;;;1.38;0.30;;;17.30;74.10;;;;;;5026633;28;81230;-68
2020/12/11 15:38:38;;;;;;;2.63;0.30;;;17.10;74.80;;;;;;5005465;28;80503;-69
2020/12/11 15:41:19;;;;;;;1.55;0.30;;;17.00;75.20;;;;;;5024107;28;79935;-68
2020/12/11 15:43:57;;;;;;;0.98;0.40;;;16.90;75.50;;;;;;5027151;28;79706;-67
2020/12/11 15:46:36;;;;;;;0.60;0.30;;;16.90;75.60;;;;;;5008203;28;82913;-67
2020/12/11 15:49:20;;;;;;;;;;;;;;;;;;;;;
2020/12/11 15:52:10;;;;;;;1.83;0.32;;;16.90;75.80;;;;;;5026261;28;109032;-67
2020/12/11 15:54:49;;;;;;;0.75;0.30;;;16.90;75.80;;;;;;4990739;28;82435;-67
2020/12/11 16:01:08;;;;;;;0.95;0.32;;;16.80;75.90;;;;;;4927181;28;80775;-66
2020/12/11 16:03:50;;;;;;;1.23;0.40;;;16.80;76.00;;;;;;4894267;28;79889;-67
2020/12/11 16:06:22;;;;;;;2.53;0.10;;;16.80;76.10;;;;;;5008428;28;80139;-66
2020/12/11 16:08:56;;;;;;;0.88;0.30;;;16.60;76.30;;;;;;5022304;28;81262;-66
2020/12/11 16:11:39;;;;;;;1.05;0.32;;;16.60;76.70;;;;;;5008031;28;80349;-67
2020/12/11 16:14:18;;;;;;;;;;;16.50;76.80;;;;;;5008565;28;80479;-66
2020/12/11 16:16:58;;;;;;;0.57;0.17;;;16.50;77.00;;;;;;5013242;28;81172;-67
2020/12/11 16:19:51;;;;;;;0.52;0.20;;;16.40;77.40;;;;;;5016047;28;80889;-67
2020/12/11 16:25:30;;;;;;;1.35;0.30;;;16.30;78.00;;;;;;5035590;28;80642;-61
2020/12/11 16:28:14;;;;;;;0.63;0.20;;;16.20;78.40;;;;;;5028442;28;82640;-60
2020/12/11 16:30:48;;;;;;;0.32;0.20;;;16.10;78.60;;;;;;4992604;28;81115;-59
2020/12/11 16:33:29;;;;;;;1.05;0.50;;;16.00;78.90;;;;;;5035907;28;80757;-59
2020/12/11 16:36:21;;;;;;;0.60;0.10;;;15.90;79.20;;;;;;5046607;28;80965;-59
2020/12/11 16:38:51;;;;;;;0.55;0.30;;;15.90;79.50;;;;;;4927699;28;80781;-63
2020/12/11 16:42:06;;;;;;;0.63;0.20;;;15.90;79.60;;;;;;4987700;28;80077;-59
2020/12/11 16:44:58;;;;;;;0.40;0.20;;;15.90;79.50;;;;;;5046758;28;80739;-62
2020/12/11 16:47:53;;;;;;;1.38;0.40;;;15.90;79.60;;;;;;5028217;28;82936;-61
2020/12/11 16:50:44;;;;;;;1.02;0.20;;;15.90;79.60;;;;;;5027456;28;80981;-61
2020/12/11 16:53:33;;;;;;;1.83;0.40;;;15.90;79.70;;;;;;5044829;28;79748;-61
2020/12/11 16:56:29;;;;;;;0.98;0.20;;;15.90;79.70;;;;;;5035388;28;80937;-60
2020/12/11 16:59:22;;;;;;;0.77;0.20;;;15.80;79.70;;;;;;5046550;28;80443;-61
2020/12/11 17:02:03;;;;;;;0.35;0.20;;;15.80;79.70;;;;;;5016264;28;80703;-61
2020/12/11 17:05:45;;;;;;;0.43;0.20;;;15.80;79.70;;;;;;5028025;28;79906;-61
2020/12/11 17:08:14;;;;;;;1.55;0.45;;;15.80;79.60;;;;;;5028124;28;80032;-61
2020/12/11 17:11:05;;;;;;;0.55;0.30;;;15.80;79.20;;;;;;5039881;28;81082;-59
2020/12/11 17:13:37;;;;;;;1.67;0.30;;;15.80;78.80;;;;;;5042369;28;80769;-60
2020/12/11 17:16:34;;;;;;;0.98;0.38;;;15.70;78.40;;;;;;5048301;27;81117;-60
2020/12/11 17:19:22;;;;;;;1.60;0.40;;;15.80;77.90;;;;;;5049335;28;81573;-60
2020/12/11 17:21:59;;;;;;;2.08;0.45;;;15.80;76.80;;;;;;4999300;28;81353;-59